createdAt,value
2023-03-28T00:00:00.522Z,11.60
2023-03-28T00:02:27.638Z,10.57
2023-03-28T00:04:54.819Z,11.97
2023-03-28T00:07:22.503Z,16.50
2023-03-28T00:09:50.361Z,10.27
2023-03-28T00:12:17.476Z,11.57
2023-03-28T00:14:46.339Z,14.77
2023-03-28T00:17:13.632Z,14.03
2023-03-28T00:19:41.140Z,11.90
2023-03-28T00:22:08.673Z,19.93
2023-03-28T00:24:39.027Z,16.67
2023-03-28T00:27:07.326Z,14.83
2023-03-28T00:29:34.788Z,11.43
2023-03-28T00:32:03.036Z,12.97
2023-03-28T00:34:30.501Z,13.93
2023-03-28T00:36:58.608Z,15.30
2023-03-28T00:39:27.832Z,14.90
2023-03-28T00:41:55.923Z,10.47
2023-03-28T00:44:58.859Z,12.87
2023-03-28T00:47:59.061Z,13.67
2023-03-28T00:50:30.967Z,19.47
2023-03-28T00:53:22.115Z,11.47
2023-03-28T00:56:23.507Z,18.37
2023-03-28T00:58:52.172Z,17.07
2023-03-28T01:01:20.611Z,18.13
2023-03-28T01:03:56.546Z,16.67
2023-03-28T01:06:26.023Z,15.83
2023-03-28T01:08:54.100Z,13.40
2023-03-28T01:11:23.802Z,12.00
2023-03-28T01:13:53.118Z,11.27
2023-03-28T01:16:30.957Z,10.77
2023-03-28T01:19:03.898Z,8.87
2023-03-28T01:22:13.959Z,12.47
2023-03-28T01:25:26.618Z,7.80
2023-03-28T01:28:44.400Z,8.53
2023-03-28T01:31:33.480Z,6.97
2023-03-28T01:35:30.059Z,8.43
2023-03-28T01:41:57.549Z,11.00
2023-03-28T01:44:47.359Z,8.30
2023-03-28T01:47:27.298Z,8.10
2023-03-28T01:50:14.970Z,7.60
2023-03-28T01:59:57.873Z,7.90
2023-03-28T02:03:17.819Z,8.07
2023-03-28T02:06:08.417Z,6.23
2023-03-28T02:08:40.102Z,7.17
2023-03-28T02:11:27.757Z,5.20
2023-03-28T02:14:39.431Z,7.90
2023-03-28T02:17:43.839Z,7.43
2023-03-28T02:20:38.287Z,9.83
2023-03-28T02:23:37.114Z,8.80
2023-03-28T02:26:31.198Z,8.83
2023-03-28T02:32:13.025Z,6.00
2023-03-28T02:34:42.011Z,7.30
2023-03-28T02:37:38.789Z,7.73
2023-03-28T02:40:49.861Z,6.13
2023-03-28T02:44:24.381Z,10.63
2023-03-28T02:47:33.587Z,5.47
2023-03-28T02:50:22.274Z,9.40
2023-03-28T02:53:33.069Z,9.33
2023-03-28T02:56:29.716Z,8.53
2023-03-28T02:59:14.887Z,9.17
2023-03-28T03:01:42.931Z,6.37
2023-03-28T03:04:10.112Z,6.13
2023-03-28T03:06:37.354Z,5.17
2023-03-28T03:09:05.035Z,6.07
2023-03-28T03:11:32.541Z,12.47
2023-03-28T03:14:00.552Z,9.70
2023-03-28T03:16:29.913Z,5.93
2023-03-28T03:18:58.573Z,10.03
2023-03-28T03:21:26.300Z,8.87
2023-03-28T03:23:53.402Z,11.97
2023-03-28T03:26:20.797Z,11.93
2023-03-28T03:29:00.912Z,9.30
2023-03-28T03:31:28.912Z,8.77
2023-03-28T03:34:34.035Z,6.60
2023-03-28T03:37:02.497Z,8.17
2023-03-28T03:39:29.978Z,11.47
2023-03-28T03:41:57.506Z,8.53
2023-03-28T03:44:24.797Z,8.10
2023-03-28T03:46:52.651Z,8.80
2023-03-28T03:49:19.812Z,7.70
2023-03-28T03:51:47.156Z,9.93
2023-03-28T03:54:16.971Z,9.53
2023-03-28T03:56:44.197Z,9.47
2023-03-28T03:59:12.310Z,14.90
2023-03-28T04:01:41.680Z,8.63
2023-03-28T04:04:28.298Z,8.03
2023-03-28T04:07:15.966Z,17.10
2023-03-28T04:09:46.666Z,10.27
2023-03-28T04:12:15.627Z,13.97
2023-03-28T04:14:48.562Z,9.47
2023-03-28T04:17:35.522Z,10.37
2023-03-28T04:20:13.872Z,11.97
2023-03-28T04:23:02.100Z,12.23
2023-03-28T04:25:31.571Z,11.40
2023-03-28T04:28:04.751Z,11.90
2023-03-28T04:30:38.331Z,8.97
2023-03-28T04:33:34.916Z,11.50
2023-03-28T04:36:06.031Z,12.10
2023-03-28T04:38:37.590Z,15.87
2023-03-28T04:41:19.098Z,16.70
2023-03-28T04:44:24.917Z,14.87
2023-03-28T04:47:00.910Z,13.20
2023-03-28T04:49:28.069Z,16.30
2023-03-28T04:51:55.380Z,16.73
2023-03-28T04:54:22.840Z,10.77
2023-03-28T04:57:09.976Z,18.50
2023-03-28T04:59:46.095Z,15.47
2023-03-28T05:02:22.189Z,17.80
2023-03-28T05:05:00.049Z,15.90
2023-03-28T05:07:27.277Z,11.73
2023-03-28T05:09:54.970Z,16.00
2023-03-28T05:12:22.177Z,15.17
2023-03-28T05:14:56.951Z,13.17
2023-03-28T05:17:25.161Z,22.03
2023-03-28T05:20:16.761Z,17.43
2023-03-28T05:22:50.971Z,18.13
2023-03-28T05:25:18.377Z,18.50
2023-03-28T05:27:46.417Z,30.87
2023-03-28T05:30:13.832Z,30.50
2023-03-28T05:32:41.757Z,57.83
2023-03-28T05:35:13.790Z,38.33
2023-03-28T05:37:43.014Z,40.87
2023-03-28T05:40:12.713Z,20.23
2023-03-28T05:42:41.903Z,15.83
2023-03-28T05:45:13.304Z,13.67
2023-03-28T05:47:56.984Z,16.73
2023-03-28T05:50:26.368Z,19.43
2023-03-28T05:52:59.931Z,15.23
2023-03-28T05:55:27.072Z,15.60
2023-03-28T05:57:54.112Z,18.33
2023-03-28T06:00:24.583Z,17.00
2023-03-28T06:02:54.999Z,15.30
2023-03-28T06:05:31.649Z,13.87
2023-03-28T06:07:58.854Z,13.57
2023-03-28T06:10:28.690Z,16.07
2023-03-28T06:13:15.849Z,14.97
2023-03-28T06:15:45.633Z,16.47
2023-03-28T06:18:12.814Z,15.80
2023-03-28T06:20:45.064Z,13.47
2023-03-28T06:23:12.675Z,20.47
2023-03-28T06:25:39.776Z,18.73
2023-03-28T06:28:07.445Z,28.23
2023-03-28T06:30:48.502Z,25.77
2023-03-28T06:33:15.993Z,26.83
2023-03-28T06:35:43.328Z,32.13
2023-03-28T06:38:10.679Z,23.67
2023-03-28T06:40:46.729Z,27.90
2023-03-28T06:43:13.911Z,41.47
2023-03-28T06:45:46.811Z,27.10
2023-03-28T06:48:15.216Z,23.07
2023-03-28T06:51:17.511Z,26.87
2023-03-28T06:53:46.043Z,25.77
2023-03-28T06:56:18.471Z,29.07
2023-03-28T06:58:45.832Z,17.87
2023-03-28T07:01:16.472Z,19.50
2023-03-28T07:04:06.612Z,17.00
2023-03-28T07:06:35.582Z,17.50
2023-03-28T07:09:04.830Z,13.47
2023-03-28T07:11:49.142Z,15.80
2023-03-28T07:14:17.421Z,15.87
2023-03-28T07:16:44.802Z,18.43
2023-03-28T07:19:11.958Z,11.70
2023-03-28T07:21:42.436Z,14.07
2023-03-28T07:24:09.778Z,12.33
2023-03-28T07:27:11.892Z,18.07
2023-03-28T07:29:42.731Z,13.63
2023-03-28T07:32:10.068Z,16.37
2023-03-28T07:34:37.262Z,17.70
2023-03-28T07:37:05.457Z,16.77
2023-03-28T07:39:51.306Z,17.57
2023-03-28T07:42:22.551Z,15.67
2023-03-28T07:44:49.695Z,13.57
2023-03-28T07:47:18.336Z,13.80
2023-03-28T07:49:46.035Z,16.70
2023-03-28T07:52:14.102Z,14.93
2023-03-28T07:54:41.879Z,14.00
2023-03-28T07:57:09.185Z,10.13
2023-03-28T07:59:56.285Z,11.30
2023-03-28T08:02:24.083Z,13.30
2023-03-28T08:04:53.714Z,14.73
2023-03-28T08:07:25.778Z,9.20
2023-03-28T08:09:55.238Z,8.60
2023-03-28T08:12:29.539Z,10.83
2023-03-28T08:14:56.736Z,10.60
2023-03-28T08:17:24.477Z,9.10
2023-03-28T08:19:53.306Z,10.67
2023-03-28T08:22:49.510Z,10.17
2023-03-28T08:25:39.501Z,13.50
2023-03-28T08:28:08.003Z,12.53
2023-03-28T08:30:35.739Z,9.27
2023-03-28T08:33:06.533Z,6.67
2023-03-28T08:35:34.038Z,7.23
2023-03-28T08:38:10.470Z,10.97
2023-03-28T08:40:44.345Z,7.77
2023-03-28T08:44:05.520Z,9.13
2023-03-28T08:46:35.433Z,11.83
2023-03-28T08:49:12.060Z,9.50
2023-03-28T08:51:47.774Z,11.53
2023-03-28T08:54:20.921Z,9.47
2023-03-28T08:56:55.618Z,9.63
2023-03-28T08:59:50.451Z,9.63
2023-03-28T09:02:23.164Z,8.80
2023-03-28T09:04:51.621Z,11.43
2023-03-28T09:08:00.475Z,11.73
2023-03-28T09:10:42.983Z,11.80
2023-03-28T09:14:03.014Z,12.33
2023-03-28T09:17:01.586Z,8.13
2023-03-28T09:20:11.384Z,7.97
2023-03-28T09:23:52.951Z,10.23
2023-03-28T09:26:45.414Z,9.67
2023-03-28T09:29:24.854Z,8.10
2023-03-28T09:32:12.604Z,8.07
2023-03-28T09:34:51.549Z,6.73
2023-03-28T09:37:38.170Z,9.17
2023-03-28T09:40:19.386Z,9.93
2023-03-28T09:43:33.461Z,10.57
2023-03-28T09:46:48.688Z,8.30
2023-03-28T09:49:33.687Z,6.33
2023-03-28T09:52:21.659Z,6.13
2023-03-28T09:54:49.184Z,8.83
2023-03-28T09:57:16.460Z,10.40
2023-03-28T09:59:58.801Z,8.87
2023-03-28T10:02:33.016Z,6.33
2023-03-28T10:05:30.253Z,6.27
2023-03-28T10:08:06.029Z,7.30
2023-03-28T10:10:59.915Z,6.40
2023-03-28T10:13:28.255Z,6.40
2023-03-28T10:15:58.867Z,6.40
2023-03-28T10:18:52.325Z,6.10
2023-03-28T10:21:48.766Z,7.03
2023-03-28T10:24:22.755Z,7.67
2023-03-28T10:26:59.192Z,6.60
2023-03-28T10:29:27.195Z,7.57
2023-03-28T10:31:55.202Z,6.33
2023-03-28T10:34:33.686Z,6.17
2023-03-28T10:37:30.090Z,7.93
2023-03-28T10:40:26.721Z,8.40
2023-03-28T10:43:34.264Z,4.43
2023-03-28T10:46:20.267Z,3.83
2023-03-28T10:49:15.622Z,5.07
2023-03-28T10:51:46.016Z,7.00
2023-03-28T10:54:52.172Z,9.10
2023-03-28T10:58:01.417Z,7.27
2023-03-28T11:00:47.145Z,5.33
2023-03-28T11:03:55.796Z,5.73
2023-03-28T11:07:05.464Z,6.70
2023-03-28T11:10:16.101Z,6.03
2023-03-28T11:13:49.542Z,5.30
2023-03-28T11:17:00.635Z,6.60
2023-03-28T12:06:27.321Z,5.80
2023-03-28T12:09:26.466Z,4.97
2023-03-28T12:12:10.636Z,3.90
2023-03-28T12:15:12.347Z,4.20
2023-03-28T12:18:07.862Z,4.83
2023-03-28T12:21:00.858Z,3.90
2023-03-28T12:24:37.514Z,4.87
2023-03-28T12:31:30.999Z,4.03
2023-03-28T12:34:38.382Z,5.23
2023-03-28T13:42:26.946Z,4.40
2023-03-28T13:44:58.603Z,5.17
2023-03-28T13:47:33.818Z,7.67
2023-03-28T13:50:22.829Z,3.07
2023-03-28T13:52:49.993Z,8.37
2023-03-28T13:55:25.434Z,4.53
2023-03-28T13:57:53.448Z,4.67
2023-03-28T14:00:23.783Z,4.03
2023-03-28T14:02:53.625Z,5.50
2023-03-28T14:05:27.195Z,6.73
2023-03-28T14:08:01.542Z,6.03
2023-03-28T14:10:34.893Z,7.00
2023-03-28T14:13:11.250Z,5.57
2023-03-28T14:15:40.711Z,3.40
2023-03-28T14:18:25.243Z,6.53
2023-03-28T14:20:56.062Z,6.60
2023-03-28T14:23:41.078Z,7.03
2023-03-28T14:26:20.218Z,6.27
2023-03-28T14:28:47.474Z,4.50
2023-03-28T14:31:28.386Z,6.27
2023-03-28T14:33:58.671Z,6.63
2023-03-28T14:36:31.201Z,6.43
2023-03-28T14:39:14.069Z,5.00
2023-03-28T14:41:43.496Z,8.13
2023-03-28T14:44:13.444Z,6.50
2023-03-28T14:46:41.288Z,5.10
2023-03-28T14:49:12.001Z,5.53
2023-03-28T14:51:43.261Z,2.83
2023-03-28T14:54:14.559Z,6.93
2023-03-28T14:56:42.240Z,3.93
2023-03-28T14:59:16.077Z,3.73
2023-03-28T15:01:45.356Z,7.23
2023-03-28T15:04:13.488Z,5.40
2023-03-28T15:06:40.716Z,4.10
2023-03-28T15:09:37.080Z,3.97
2023-03-28T15:12:08.049Z,6.03
2023-03-28T15:14:43.002Z,3.83
2023-03-28T15:17:19.009Z,4.97
2023-03-28T15:19:48.324Z,6.33
2023-03-28T15:22:24.510Z,3.30
2023-03-28T15:24:51.945Z,4.13
2023-03-28T15:27:35.212Z,4.13
2023-03-28T15:30:12.640Z,2.97
2023-03-28T15:32:40.043Z,5.47
2023-03-28T15:35:31.504Z,4.03
2023-03-28T15:38:07.340Z,3.83
2023-03-28T15:40:51.578Z,2.37
2023-03-28T15:44:11.564Z,4.00
2023-03-28T15:46:39.386Z,4.70
2023-03-28T15:49:07.534Z,3.50
2023-03-28T15:51:49.614Z,4.87
2023-03-28T15:54:30.340Z,4.83
2023-03-28T15:57:02.168Z,3.90
2023-03-28T15:59:42.358Z,5.77
2023-03-28T16:02:40.907Z,5.93
2023-03-28T16:05:31.925Z,3.80
2023-03-28T16:07:59.230Z,4.50
2023-03-28T16:10:26.384Z,3.20
2023-03-28T16:13:31.891Z,4.57
2023-03-28T16:16:26.307Z,3.80
2023-03-28T16:19:02.695Z,5.83
2023-03-28T16:21:31.085Z,4.53
2023-03-28T16:23:58.155Z,3.67
2023-03-28T16:26:25.413Z,5.37
2023-03-28T16:28:52.456Z,2.73
2023-03-28T16:31:19.608Z,3.20
2023-03-28T16:33:46.708Z,3.67
2023-03-28T16:36:14.084Z,4.00
2023-03-28T16:38:41.158Z,4.27
2023-03-28T16:41:08.860Z,4.03
2023-03-28T16:43:37.903Z,4.07
2023-03-28T16:46:05.596Z,4.80
2023-03-28T16:48:33.786Z,5.10
2023-03-28T16:51:07.271Z,5.23
2023-03-28T16:53:36.725Z,3.73
2023-03-28T16:56:05.251Z,4.90
2023-03-28T16:58:32.717Z,6.97
2023-03-28T17:01:19.780Z,4.87
2023-03-28T17:03:47.629Z,5.20
2023-03-28T17:06:16.704Z,10.87
2023-03-28T17:08:44.564Z,3.90
2023-03-28T17:11:12.758Z,8.10
2023-03-28T17:13:41.331Z,4.53
2023-03-28T17:16:09.871Z,3.97
2023-03-28T17:18:37.481Z,3.47
2023-03-28T17:21:07.166Z,4.90
2023-03-28T17:23:35.800Z,3.70
2023-03-28T17:26:03.211Z,5.17
2023-03-28T17:28:30.965Z,5.57
2023-03-28T17:30:58.138Z,6.20
2023-03-28T17:33:29.439Z,5.80
2023-03-28T17:35:56.604Z,7.10
2023-03-28T17:38:23.771Z,3.67
2023-03-28T17:40:50.946Z,6.37
2023-03-28T17:43:18.295Z,5.07
2023-03-28T17:45:45.414Z,7.10
2023-03-28T17:48:12.698Z,6.20
2023-03-28T17:50:39.848Z,4.10
2023-03-28T17:53:07.012Z,5.03
2023-03-28T17:55:34.569Z,3.53
2023-03-28T17:58:02.240Z,4.40
2023-03-28T18:00:31.520Z,5.00
2023-03-28T18:02:58.983Z,3.53
2023-03-28T18:05:54.026Z,4.70
2023-03-28T18:08:21.873Z,4.93
2023-03-28T18:10:48.946Z,4.43
2023-03-28T18:13:16.105Z,9.77
2023-03-28T18:15:44.351Z,5.00
2023-03-28T18:18:14.319Z,4.90
2023-03-28T18:20:44.515Z,3.80
2023-03-28T18:23:12.052Z,6.47
2023-03-28T18:25:39.592Z,5.23
2023-03-28T18:28:07.752Z,5.43
2023-03-28T18:30:35.225Z,4.63
2023-03-28T18:33:02.707Z,5.03
2023-03-28T18:35:30.139Z,4.63
2023-03-28T18:37:57.690Z,5.00
2023-03-28T18:40:24.891Z,5.67
2023-03-28T18:42:52.107Z,5.43
2023-03-28T18:45:19.462Z,5.90
2023-03-28T18:47:46.722Z,10.63
2023-03-28T18:50:15.248Z,5.80
2023-03-28T18:52:42.994Z,3.30
2023-03-28T18:55:12.146Z,6.20
2023-03-28T18:57:40.408Z,6.30
2023-03-28T19:00:20.630Z,6.37
2023-03-28T19:02:49.478Z,5.00
2023-03-28T19:05:17.559Z,7.10
2023-03-28T19:07:45.897Z,5.90
2023-03-28T19:10:13.506Z,3.83
2023-03-28T19:12:41.755Z,7.40
2023-03-28T19:15:11.060Z,3.63
2023-03-28T19:17:40.015Z,5.77
2023-03-28T19:20:12.206Z,5.57
2023-03-28T19:22:42.757Z,5.13
2023-03-28T19:25:10.362Z,4.27
2023-03-28T19:27:38.078Z,4.63
2023-03-28T19:30:07.324Z,4.60
2023-03-28T19:32:34.762Z,3.60
2023-03-28T19:35:01.874Z,5.13
2023-03-28T19:37:29.345Z,7.37
2023-03-28T19:39:59.197Z,4.87
2023-03-28T19:42:26.412Z,3.97
2023-03-28T19:44:56.751Z,5.80
2023-03-28T19:47:24.378Z,5.23
2023-03-28T19:49:51.530Z,5.83
2023-03-28T19:52:18.735Z,5.30
2023-03-28T19:54:45.997Z,7.30
2023-03-28T19:57:13.778Z,3.47
2023-03-28T19:59:41.110Z,5.10
2023-03-28T20:02:11.611Z,7.73
2023-03-28T20:04:38.713Z,5.10
2023-03-28T20:07:06.078Z,4.73
2023-03-28T20:09:34.989Z,6.80
2023-03-28T20:12:02.675Z,4.77
2023-03-28T20:14:29.740Z,7.30
2023-03-28T20:16:56.883Z,5.23
2023-03-28T20:19:24.051Z,4.87
2023-03-28T20:21:51.257Z,4.50
2023-03-28T20:24:18.306Z,6.03
2023-03-28T20:26:45.753Z,5.57
2023-03-28T20:29:13.937Z,5.50
2023-03-28T20:31:41.302Z,4.77
2023-03-28T20:34:08.457Z,4.30
2023-03-28T20:36:35.862Z,8.40
2023-03-28T20:39:04.009Z,6.00
2023-03-28T20:41:31.089Z,6.40
2023-03-28T20:44:03.650Z,5.90
2023-03-28T20:46:38.839Z,5.67
2023-03-28T20:49:06.375Z,7.10
2023-03-28T20:51:37.539Z,7.37
2023-03-28T20:54:06.470Z,6.13
2023-03-28T20:56:33.596Z,7.27
2023-03-28T20:59:00.741Z,7.90
2023-03-28T21:01:30.124Z,6.20
2023-03-28T21:04:00.216Z,7.53
2023-03-28T21:06:36.116Z,6.03
2023-03-28T21:09:06.951Z,11.50
2023-03-28T21:11:37.002Z,7.60
2023-03-28T21:14:06.297Z,6.73
2023-03-28T21:16:34.008Z,7.93
2023-03-28T21:19:02.682Z,5.87
2023-03-28T21:21:30.487Z,8.20
2023-03-28T21:23:57.602Z,9.43
2023-03-28T21:26:25.363Z,5.17
2023-03-28T21:28:53.140Z,8.50
2023-03-28T21:31:25.893Z,8.23
2023-03-28T21:33:56.923Z,6.37
2023-03-28T21:36:25.354Z,5.67
2023-03-28T21:38:53.103Z,14.53
2023-03-28T21:41:20.726Z,5.40
2023-03-28T21:43:48.329Z,6.90
2023-03-28T21:46:18.665Z,5.47
2023-03-28T21:48:48.446Z,5.07
2023-03-28T21:51:17.250Z,5.77
2023-03-28T21:53:45.044Z,9.33
2023-03-28T21:56:14.478Z,5.97
2023-03-28T21:58:42.285Z,6.20
2023-03-28T22:01:13.031Z,7.97
2023-03-28T22:03:40.368Z,6.30
2023-03-28T22:06:08.198Z,4.30
2023-03-28T22:08:35.438Z,6.57
2023-03-28T22:11:04.399Z,3.93
2023-03-28T22:13:32.025Z,7.67
2023-03-28T22:16:00.109Z,6.13
2023-03-28T22:18:28.427Z,5.03
2023-03-28T22:20:55.595Z,4.70
2023-03-28T22:23:24.198Z,5.27
2023-03-28T22:25:53.055Z,5.93
2023-03-28T22:28:24.735Z,4.67
2023-03-28T22:30:56.910Z,8.23
2023-03-28T22:33:25.637Z,6.27
2023-03-28T22:35:53.176Z,4.77
2023-03-28T22:38:20.506Z,4.87
2023-03-28T22:40:47.786Z,4.87
2023-03-28T22:43:16.224Z,5.13
2023-03-28T22:45:43.875Z,5.40
2023-03-28T22:48:14.647Z,6.10
2023-03-28T22:50:44.347Z,4.70
2023-03-28T22:53:12.501Z,5.00
2023-03-28T22:55:39.654Z,3.40
2023-03-28T22:58:07.150Z,3.13
2023-03-28T23:00:34.987Z,9.23
2023-03-28T23:03:02.390Z,10.67
2023-03-28T23:05:29.841Z,4.47
2023-03-28T23:07:57.805Z,3.90
2023-03-28T23:10:24.921Z,6.47
2023-03-28T23:12:52.019Z,4.70
2023-03-28T23:15:19.185Z,4.70
2023-03-28T23:17:46.712Z,6.20
2023-03-28T23:20:15.053Z,3.97
2023-03-28T23:22:46.629Z,6.57
2023-03-28T23:25:15.687Z,3.70
2023-03-28T23:27:43.583Z,8.90
2023-03-28T23:30:13.755Z,7.47
2023-03-28T23:32:41.093Z,3.73
2023-03-28T23:35:10.496Z,4.43
2023-03-28T23:37:38.450Z,4.17
2023-03-28T23:40:11.565Z,4.53
2023-03-28T23:42:38.839Z,7.03
2023-03-28T23:45:06.962Z,4.37
2023-03-28T23:47:34.127Z,4.27
2023-03-28T23:50:01.442Z,7.13
2023-03-28T23:52:28.607Z,5.73
2023-03-28T23:54:56.061Z,5.43
2023-03-28T23:57:25.386Z,5.33
2023-03-28T23:59:52.525Z,9.80
